sensor_id;sensor_type;location;lat;lon;timestamp;P1;durP1;ratioP1;P2;durP2;ratioP2
37067;SDS011;22982;42.848;25.468;2023-03-31T00:03:10;6.47;;;3.58;;
37067;SDS011;22982;42.848;25.468;2023-03-31T00:08:12;9.05;;;5.07;;
37067;SDS011;22982;42.848;25.468;2023-03-31T00:13:15;5.88;;;3.55;;
37067;SDS011;22982;42.848;25.468;2023-03-31T00:18:18;7.15;;;3.78;;
37067;SDS011;22982;42.848;25.468;2023-03-31T00:23:20;5.93;;;3.58;;
37067;SDS011;22982;42.848;25.468;2023-03-31T00:28:28;4.20;;;2.97;;
37067;SDS011;22982;42.848;25.468;2023-03-31T00:33:31;4.85;;;3.15;;
37067;SDS011;22982;42.848;25.468;2023-03-31T00:38:33;4.88;;;2.90;;
37067;SDS011;22982;42.848;25.468;2023-03-31T00:43:37;5.38;;;3.35;;
37067;SDS011;22982;42.848;25.468;2023-03-31T00:48:45;6.03;;;3.63;;
37067;SDS011;22982;42.848;25.468;2023-03-31T00:53:53;5.07;;;2.97;;
37067;SDS011;22982;42.848;25.468;2023-03-31T00:59:01;10.55;;;5.60;;
37067;SDS011;22982;42.848;25.468;2023-03-31T01:04:09;6.32;;;2.70;;
37067;SDS011;22982;42.848;25.468;2023-03-31T01:09:13;6.88;;;3.78;;
37067;SDS011;22982;42.848;25.468;2023-03-31T01:14:18;7.13;;;3.85;;
37067;SDS011;22982;42.848;25.468;2023-03-31T01:51:20;8.73;;;3.83;;
37067;SDS011;22982;42.848;25.468;2023-03-31T01:56:36;8.18;;;4.15;;
37067;SDS011;22982;42.848;25.468;2023-03-31T02:01:48;8.02;;;4.25;;
37067;SDS011;22982;42.848;25.468;2023-03-31T02:06:54;11.77;;;5.63;;
37067;SDS011;22982;42.848;25.468;2023-03-31T02:12:04;6.68;;;3.50;;
37067;SDS011;22982;42.848;25.468;2023-03-31T02:17:12;13.32;;;5.15;;
37067;SDS011;22982;42.848;25.468;2023-03-31T02:22:19;13.00;;;6.45;;
37067;SDS011;22982;42.848;25.468;2023-03-31T02:27:25;8.02;;;4.32;;
37067;SDS011;22982;42.848;25.468;2023-03-31T02:32:36;6.97;;;3.83;;
37067;SDS011;22982;42.848;25.468;2023-03-31T02:37:40;8.45;;;4.50;;
37067;SDS011;22982;42.848;25.468;2023-03-31T02:42:46;9.18;;;4.82;;
37067;SDS011;22982;42.848;25.468;2023-03-31T02:47:49;13.27;;;6.07;;
37067;SDS011;22982;42.848;25.468;2023-03-31T02:52:55;11.57;;;5.00;;
37067;SDS011;22982;42.848;25.468;2023-03-31T02:58:17;9.65;;;4.93;;
37067;SDS011;22982;42.848;25.468;2023-03-31T03:09:16;12.15;;;5.70;;
37067;SDS011;22982;42.848;25.468;2023-03-31T03:19:55;6.47;;;3.70;;
37067;SDS011;22982;42.848;25.468;2023-03-31T03:25:02;9.43;;;4.82;;
37067;SDS011;22982;42.848;25.468;2023-03-31T03:30:09;7.82;;;4.35;;
37067;SDS011;22982;42.848;25.468;2023-03-31T03:35:13;7.07;;;4.32;;
37067;SDS011;22982;42.848;25.468;2023-03-31T03:40:16;7.75;;;4.32;;
37067;SDS011;22982;42.848;25.468;2023-03-31T03:45:19;7.32;;;4.38;;
37067;SDS011;22982;42.848;25.468;2023-03-31T03:50:21;10.02;;;5.13;;
37067;SDS011;22982;42.848;25.468;2023-03-31T03:55:24;9.80;;;5.70;;
37067;SDS011;22982;42.848;25.468;2023-03-31T04:00:26;8.95;;;5.15;;
37067;SDS011;22982;42.848;25.468;2023-03-31T04:05:28;9.63;;;5.50;;
37067;SDS011;22982;42.848;25.468;2023-03-31T04:10:31;11.65;;;6.15;;
37067;SDS011;22982;42.848;25.468;2023-03-31T04:15:33;22.40;;;9.95;;
37067;SDS011;22982;42.848;25.468;2023-03-31T04:20:36;22.65;;;12.13;;
37067;SDS011;22982;42.848;25.468;2023-03-31T04:25:38;33.65;;;14.10;;
37067;SDS011;22982;42.848;25.468;2023-03-31T04:30:46;100.10;;;33.67;;
37067;SDS011;22982;42.848;25.468;2023-03-31T04:35:49;115.30;;;34.90;;
37067;SDS011;22982;42.848;25.468;2023-03-31T04:40:53;124.00;;;39.40;;
37067;SDS011;22982;42.848;25.468;2023-03-31T04:45:57;74.30;;;29.65;;
37067;SDS011;22982;42.848;25.468;2023-03-31T04:50:59;21.80;;;11.82;;
37067;SDS011;22982;42.848;25.468;2023-03-31T04:56:02;26.65;;;13.82;;
37067;SDS011;22982;42.848;25.468;2023-03-31T05:01:05;22.13;;;12.80;;
37067;SDS011;22982;42.848;25.468;2023-03-31T05:06:07;30.90;;;14.95;;
37067;SDS011;22982;42.848;25.468;2023-03-31T05:11:10;25.48;;;14.05;;
37067;SDS011;22982;42.848;25.468;2023-03-31T05:16:12;26.13;;;14.38;;
37067;SDS011;22982;42.848;25.468;2023-03-31T05:21:16;16.80;;;9.68;;
37067;SDS011;22982;42.848;25.468;2023-03-31T05:26:20;16.60;;;10.40;;
37067;SDS011;22982;42.848;25.468;2023-03-31T05:31:27;24.55;;;12.85;;
37067;SDS011;22982;42.848;25.468;2023-03-31T05:36:29;25.40;;;12.45;;
37067;SDS011;22982;42.848;25.468;2023-03-31T05:41:32;26.15;;;14.05;;
37067;SDS011;22982;42.848;25.468;2023-03-31T05:46:35;38.17;;;16.27;;
37067;SDS011;22982;42.848;25.468;2023-03-31T05:51:37;45.72;;;25.33;;
37067;SDS011;22982;42.848;25.468;2023-03-31T05:56:40;28.08;;;17.98;;
37067;SDS011;22982;42.848;25.468;2023-03-31T06:01:42;12.60;;;7.63;;
37067;SDS011;22982;42.848;25.468;2023-03-31T06:06:45;6.70;;;4.40;;
37067;SDS011;22982;42.848;25.468;2023-03-31T06:11:51;11.02;;;5.57;;
37067;SDS011;22982;42.848;25.468;2023-03-31T06:16:53;8.18;;;4.15;;
37067;SDS011;22982;42.848;25.468;2023-03-31T06:21:58;16.65;;;8.80;;
37067;SDS011;22982;42.848;25.468;2023-03-31T06:27:00;16.80;;;10.75;;
37067;SDS011;22982;42.848;25.468;2023-03-31T06:32:04;13.85;;;9.38;;
37067;SDS011;22982;42.848;25.468;2023-03-31T06:37:07;9.27;;;5.57;;
37067;SDS011;22982;42.848;25.468;2023-03-31T06:42:11;8.23;;;5.78;;
37067;SDS011;22982;42.848;25.468;2023-03-31T06:47:14;43.13;;;33.05;;
37067;SDS011;22982;42.848;25.468;2023-03-31T06:52:18;32.17;;;16.92;;
37067;SDS011;22982;42.848;25.468;2023-03-31T06:57:21;35.90;;;24.80;;
37067;SDS011;22982;42.848;25.468;2023-03-31T07:02:23;20.40;;;13.77;;
37067;SDS011;22982;42.848;25.468;2023-03-31T07:07:26;28.30;;;15.15;;
37067;SDS011;22982;42.848;25.468;2023-03-31T07:12:32;8.10;;;4.70;;
37067;SDS011;22982;42.848;25.468;2023-03-31T07:17:34;22.73;;;12.40;;
37067;SDS011;22982;42.848;25.468;2023-03-31T07:22:38;12.30;;;6.85;;
37067;SDS011;22982;42.848;25.468;2023-03-31T07:27:42;13.93;;;10.85;;
37067;SDS011;22982;42.848;25.468;2023-03-31T07:32:45;5.70;;;2.50;;
37067;SDS011;22982;42.848;25.468;2023-03-31T07:37:49;6.50;;;3.15;;
37067;SDS011;22982;42.848;25.468;2023-03-31T07:42:53;6.43;;;4.85;;
37067;SDS011;22982;42.848;25.468;2023-03-31T07:47:55;12.25;;;9.82;;
37067;SDS011;22982;42.848;25.468;2023-03-31T07:52:58;5.60;;;3.20;;
37067;SDS011;22982;42.848;25.468;2023-03-31T07:58:01;7.18;;;3.83;;
37067;SDS011;22982;42.848;25.468;2023-03-31T08:03:03;4.57;;;2.47;;
37067;SDS011;22982;42.848;25.468;2023-03-31T08:08:06;5.53;;;2.70;;
37067;SDS011;22982;42.848;25.468;2023-03-31T08:13:09;3.33;;;2.83;;
37067;SDS011;22982;42.848;25.468;2023-03-31T08:18:12;7.57;;;3.95;;
37067;SDS011;22982;42.848;25.468;2023-03-31T08:23:15;6.80;;;3.75;;
37067;SDS011;22982;42.848;25.468;2023-03-31T08:28:17;15.02;;;8.77;;
37067;SDS011;22982;42.848;25.468;2023-03-31T08:33:20;106.75;;;62.05;;
37067;SDS011;22982;42.848;25.468;2023-03-31T08:38:22;6.15;;;3.78;;
37067;SDS011;22982;42.848;25.468;2023-03-31T08:43:26;11.93;;;6.32;;
37067;SDS011;22982;42.848;25.468;2023-03-31T08:48:40;10.60;;;3.83;;
37067;SDS011;22982;42.848;25.468;2023-03-31T08:53:51;7.75;;;3.30;;
37067;SDS011;22982;42.848;25.468;2023-03-31T08:59:00;8.18;;;3.72;;
37067;SDS011;22982;42.848;25.468;2023-03-31T09:09:30;11.98;;;4.60;;
37067;SDS011;22982;42.848;25.468;2023-03-31T09:14:37;4.82;;;3.50;;
37067;SDS011;22982;42.848;25.468;2023-03-31T09:19:53;6.43;;;3.75;;
37067;SDS011;22982;42.848;25.468;2023-03-31T09:25:02;5.70;;;3.97;;
37067;SDS011;22982;42.848;25.468;2023-03-31T09:30:16;10.95;;;3.67;;
37067;SDS011;22982;42.848;25.468;2023-03-31T09:35:24;6.85;;;4.03;;
37067;SDS011;22982;42.848;25.468;2023-03-31T09:40:27;9.05;;;5.18;;
37067;SDS011;22982;42.848;25.468;2023-03-31T09:45:30;9.35;;;3.58;;
37067;SDS011;22982;42.848;25.468;2023-03-31T09:50:35;5.85;;;3.30;;
37067;SDS011;22982;42.848;25.468;2023-03-31T09:55:54;8.25;;;3.38;;
37067;SDS011;22982;42.848;25.468;2023-03-31T10:01:03;6.93;;;4.30;;
37067;SDS011;22982;42.848;25.468;2023-03-31T10:06:09;8.85;;;3.97;;
37067;SDS011;22982;42.848;25.468;2023-03-31T10:11:13;6.63;;;3.75;;
37067;SDS011;22982;42.848;25.468;2023-03-31T10:16:26;7.65;;;4.65;;
37067;SDS011;22982;42.848;25.468;2023-03-31T10:21:34;10.13;;;3.50;;
37067;SDS011;22982;42.848;25.468;2023-03-31T10:26:38;6.03;;;3.63;;
37067;SDS011;22982;42.848;25.468;2023-03-31T10:31:42;11.48;;;4.25;;
37067;SDS011;22982;42.848;25.468;2023-03-31T10:36:45;8.13;;;3.97;;
37067;SDS011;22982;42.848;25.468;2023-03-31T10:41:50;7.72;;;3.58;;
37067;SDS011;22982;42.848;25.468;2023-03-31T10:46:54;7.72;;;4.45;;
37067;SDS011;22982;42.848;25.468;2023-03-31T10:51:57;7.57;;;6.20;;
37067;SDS011;22982;42.848;25.468;2023-03-31T10:57:02;14.70;;;8.40;;
37067;SDS011;22982;42.848;25.468;2023-03-31T11:12:33;7.53;;;4.85;;
37067;SDS011;22982;42.848;25.468;2023-03-31T11:23:11;24.13;;;14.63;;
37067;SDS011;22982;42.848;25.468;2023-03-31T11:45:20;10.65;;;7.07;;
37067;SDS011;22982;42.848;25.468;2023-03-31T11:50:32;14.27;;;7.57;;
37067;SDS011;22982;42.848;25.468;2023-03-31T11:55:41;6.55;;;4.10;;
37067;SDS011;22982;42.848;25.468;2023-03-31T12:00:51;8.82;;;4.50;;
37067;SDS011;22982;42.848;25.468;2023-03-31T12:06:08;7.35;;;4.30;;
37067;SDS011;22982;42.848;25.468;2023-03-31T12:11:21;11.30;;;4.83;;
37067;SDS011;22982;42.848;25.468;2023-03-31T12:16:45;6.25;;;4.13;;
37067;SDS011;22982;42.848;25.468;2023-03-31T12:21:51;6.80;;;3.60;;
37067;SDS011;22982;42.848;25.468;2023-03-31T12:32:17;11.68;;;5.18;;
37067;SDS011;22982;42.848;25.468;2023-03-31T12:37:46;6.95;;;3.70;;
37067;SDS011;22982;42.848;25.468;2023-03-31T12:43:22;8.70;;;4.15;;
37067;SDS011;22982;42.848;25.468;2023-03-31T12:48:47;5.60;;;3.20;;
37067;SDS011;22982;42.848;25.468;2023-03-31T12:54:56;9.25;;;4.53;;
37067;SDS011;22982;42.848;25.468;2023-03-31T12:59:43;8.05;;;5.03;;
37067;SDS011;22982;42.848;25.468;2023-03-31T13:04:46;8.52;;;5.45;;
37067;SDS011;22982;42.848;25.468;2023-03-31T13:09:54;5.43;;;3.67;;
37067;SDS011;22982;42.848;25.468;2023-03-31T13:15:15;4.95;;;2.75;;
37067;SDS011;22982;42.848;25.468;2023-03-31T13:20:32;8.63;;;5.10;;
37067;SDS011;22982;42.848;25.468;2023-03-31T13:25:52;4.78;;;3.63;;
37067;SDS011;22982;42.848;25.468;2023-03-31T13:31:06;5.30;;;2.60;;
37067;SDS011;22982;42.848;25.468;2023-03-31T13:52:37;5.75;;;2.72;;
37067;SDS011;22982;42.848;25.468;2023-03-31T14:09:19;3.15;;;2.30;;
37067;SDS011;22982;42.848;25.468;2023-03-31T14:14:24;8.88;;;3.38;;
37067;SDS011;22982;42.848;25.468;2023-03-31T14:19:32;5.47;;;3.22;;
37067;SDS011;22982;42.848;25.468;2023-03-31T14:25:09;6.90;;;5.05;;
37067;SDS011;22982;42.848;25.468;2023-03-31T14:41:15;27.23;;;15.48;;
37067;SDS011;22982;42.848;25.468;2023-03-31T14:51:34;27.05;;;21.08;;
37067;SDS011;22982;42.848;25.468;2023-03-31T14:56:37;22.38;;;14.27;;
37067;SDS011;22982;42.848;25.468;2023-03-31T15:01:43;10.02;;;5.68;;
37067;SDS011;22982;42.848;25.468;2023-03-31T15:06:49;7.32;;;3.80;;
37067;SDS011;22982;42.848;25.468;2023-03-31T15:11:54;4.85;;;2.70;;
37067;SDS011;22982;42.848;25.468;2023-03-31T15:17:02;6.85;;;3.20;;
37067;SDS011;22982;42.848;25.468;2023-03-31T15:22:10;8.25;;;5.05;;
37067;SDS011;22982;42.848;25.468;2023-03-31T15:27:29;5.95;;;4.63;;
37067;SDS011;22982;42.848;25.468;2023-03-31T15:32:38;6.35;;;3.10;;
37067;SDS011;22982;42.848;25.468;2023-03-31T15:37:42;6.03;;;3.25;;
37067;SDS011;22982;42.848;25.468;2023-03-31T15:42:45;6.68;;;5.43;;
37067;SDS011;22982;42.848;25.468;2023-03-31T15:48:13;7.38;;;3.10;;
37067;SDS011;22982;42.848;25.468;2023-03-31T15:53:24;21.02;;;16.45;;
37067;SDS011;22982;42.848;25.468;2023-03-31T16:04:10;14.23;;;6.20;;
37067;SDS011;22982;42.848;25.468;2023-03-31T16:09:25;13.85;;;10.50;;
37067;SDS011;22982;42.848;25.468;2023-03-31T16:19:40;15.10;;;7.05;;
37067;SDS011;22982;42.848;25.468;2023-03-31T16:24:53;13.57;;;7.72;;
37067;SDS011;22982;42.848;25.468;2023-03-31T16:30:18;9.27;;;8.38;;
37067;SDS011;22982;42.848;25.468;2023-03-31T16:35:32;41.55;;;34.72;;
37067;SDS011;22982;42.848;25.468;2023-03-31T16:46:00;8.43;;;5.97;;
37067;SDS011;22982;42.848;25.468;2023-03-31T16:51:07;14.10;;;10.20;;
37067;SDS011;22982;42.848;25.468;2023-03-31T16:56:38;9.80;;;6.22;;
37067;SDS011;22982;42.848;25.468;2023-03-31T17:01:44;26.48;;;16.73;;
37067;SDS011;22982;42.848;25.468;2023-03-31T17:06:47;35.75;;;22.40;;
37067;SDS011;22982;42.848;25.468;2023-03-31T17:11:49;66.82;;;47.20;;
37067;SDS011;22982;42.848;25.468;2023-03-31T17:16:51;67.15;;;37.38;;
37067;SDS011;22982;42.848;25.468;2023-03-31T17:21:54;24.50;;;13.15;;
37067;SDS011;22982;42.848;25.468;2023-03-31T17:26:56;34.10;;;24.67;;
37067;SDS011;22982;42.848;25.468;2023-03-31T17:31:59;14.45;;;10.02;;
37067;SDS011;22982;42.848;25.468;2023-03-31T17:37:02;14.65;;;11.13;;
37067;SDS011;22982;42.848;25.468;2023-03-31T17:42:04;20.77;;;11.85;;
37067;SDS011;22982;42.848;25.468;2023-03-31T17:47:07;13.20;;;9.27;;
37067;SDS011;22982;42.848;25.468;2023-03-31T17:52:12;13.07;;;9.15;;
37067;SDS011;22982;42.848;25.468;2023-03-31T17:57:14;17.05;;;10.35;;
37067;SDS011;22982;42.848;25.468;2023-03-31T18:02:17;25.35;;;15.63;;
37067;SDS011;22982;42.848;25.468;2023-03-31T18:07:20;16.63;;;10.27;;
37067;SDS011;22982;42.848;25.468;2023-03-31T18:12:24;19.73;;;12.00;;
37067;SDS011;22982;42.848;25.468;2023-03-31T18:17:27;19.10;;;10.68;;
37067;SDS011;22982;42.848;25.468;2023-03-31T18:22:35;20.27;;;12.07;;
37067;SDS011;22982;42.848;25.468;2023-03-31T18:27:39;26.17;;;15.23;;
37067;SDS011;22982;42.848;25.468;2023-03-31T18:32:41;25.95;;;15.60;;
37067;SDS011;22982;42.848;25.468;2023-03-31T18:37:44;31.80;;;17.33;;
37067;SDS011;22982;42.848;25.468;2023-03-31T18:42:47;27.05;;;13.68;;
37067;SDS011;22982;42.848;25.468;2023-03-31T18:47:49;18.70;;;12.52;;
37067;SDS011;22982;42.848;25.468;2023-03-31T18:52:52;17.55;;;8.20;;
37067;SDS011;22982;42.848;25.468;2023-03-31T18:57:55;14.85;;;8.73;;
37067;SDS011;22982;42.848;25.468;2023-03-31T19:02:58;17.73;;;9.25;;
37067;SDS011;22982;42.848;25.468;2023-03-31T19:08:04;16.63;;;10.90;;
37067;SDS011;22982;42.848;25.468;2023-03-31T19:13:13;25.35;;;16.17;;
37067;SDS011;22982;42.848;25.468;2023-03-31T19:18:22;14.07;;;9.48;;
37067;SDS011;22982;42.848;25.468;2023-03-31T19:23:29;19.73;;;11.52;;
37067;SDS011;22982;42.848;25.468;2023-03-31T19:28:32;15.52;;;9.50;;
37067;SDS011;22982;42.848;25.468;2023-03-31T19:33:35;14.15;;;9.35;;
37067;SDS011;22982;42.848;25.468;2023-03-31T19:38:40;13.55;;;9.80;;
37067;SDS011;22982;42.848;25.468;2023-03-31T19:43:43;16.50;;;12.77;;
37067;SDS011;22982;42.848;25.468;2023-03-31T19:48:48;11.00;;;8.10;;
37067;SDS011;22982;42.848;25.468;2023-03-31T19:53:50;13.25;;;8.23;;
37067;SDS011;22982;42.848;25.468;2023-03-31T19:58:57;13.75;;;10.02;;
37067;SDS011;22982;42.848;25.468;2023-03-31T20:04:00;18.33;;;10.90;;
37067;SDS011;22982;42.848;25.468;2023-03-31T20:09:03;18.08;;;11.88;;
37067;SDS011;22982;42.848;25.468;2023-03-31T20:14:07;20.75;;;12.88;;
37067;SDS011;22982;42.848;25.468;2023-03-31T20:19:11;11.93;;;7.18;;
37067;SDS011;22982;42.848;25.468;2023-03-31T20:24:17;13.73;;;8.32;;
37067;SDS011;22982;42.848;25.468;2023-03-31T20:29:23;13.70;;;8.93;;
37067;SDS011;22982;42.848;25.468;2023-03-31T20:34:26;14.32;;;8.68;;
37067;SDS011;22982;42.848;25.468;2023-03-31T20:39:28;50.20;;;34.92;;
37067;SDS011;22982;42.848;25.468;2023-03-31T20:44:31;16.92;;;11.15;;
37067;SDS011;22982;42.848;25.468;2023-03-31T20:49:33;17.40;;;10.73;;
37067;SDS011;22982;42.848;25.468;2023-03-31T20:54:36;18.85;;;10.57;;
37067;SDS011;22982;42.848;25.468;2023-03-31T20:59:52;18.45;;;9.65;;
37067;SDS011;22982;42.848;25.468;2023-03-31T21:04:57;21.08;;;10.80;;
37067;SDS011;22982;42.848;25.468;2023-03-31T21:09:59;18.63;;;11.05;;
37067;SDS011;22982;42.848;25.468;2023-03-31T21:15:07;16.35;;;10.32;;
37067;SDS011;22982;42.848;25.468;2023-03-31T21:20:11;14.85;;;10.00;;
37067;SDS011;22982;42.848;25.468;2023-03-31T21:25:16;15.57;;;9.52;;
37067;SDS011;22982;42.848;25.468;2023-03-31T21:30:28;14.73;;;8.77;;
37067;SDS011;22982;42.848;25.468;2023-03-31T21:35:32;16.08;;;9.18;;
37067;SDS011;22982;42.848;25.468;2023-03-31T21:40:39;13.57;;;10.27;;
37067;SDS011;22982;42.848;25.468;2023-03-31T21:45:49;15.27;;;9.43;;
37067;SDS011;22982;42.848;25.468;2023-03-31T21:50:54;15.48;;;9.45;;
37067;SDS011;22982;42.848;25.468;2023-03-31T21:56:00;12.85;;;8.82;;
37067;SDS011;22982;42.848;25.468;2023-03-31T22:01:03;11.40;;;7.93;;
37067;SDS011;22982;42.848;25.468;2023-03-31T22:06:11;14.77;;;10.18;;
37067;SDS011;22982;42.848;25.468;2023-03-31T22:11:14;14.55;;;9.00;;
37067;SDS011;22982;42.848;25.468;2023-03-31T22:16:17;15.30;;;8.98;;
37067;SDS011;22982;42.848;25.468;2023-03-31T22:21:25;16.98;;;10.30;;
37067;SDS011;22982;42.848;25.468;2023-03-31T22:26:29;14.65;;;9.45;;
37067;SDS011;22982;42.848;25.468;2023-03-31T22:31:37;14.38;;;9.75;;
37067;SDS011;22982;42.848;25.468;2023-03-31T22:36:40;18.70;;;10.25;;
37067;SDS011;22982;42.848;25.468;2023-03-31T22:41:43;16.60;;;10.70;;
37067;SDS011;22982;42.848;25.468;2023-03-31T22:46:46;19.15;;;9.75;;
37067;SDS011;22982;42.848;25.468;2023-03-31T22:51:48;18.08;;;9.45;;
37067;SDS011;22982;42.848;25.468;2023-03-31T22:56:53;13.60;;;9.27;;
37067;SDS011;22982;42.848;25.468;2023-03-31T23:01:59;14.30;;;9.90;;
37067;SDS011;22982;42.848;25.468;2023-03-31T23:07:01;17.92;;;10.60;;
37067;SDS011;22982;42.848;25.468;2023-03-31T23:12:03;21.95;;;10.15;;
37067;SDS011;22982;42.848;25.468;2023-03-31T23:17:29;19.27;;;10.68;;
37067;SDS011;22982;42.848;25.468;2023-03-31T23:22:38;17.38;;;9.45;;
37067;SDS011;22982;42.848;25.468;2023-03-31T23:27:43;19.27;;;10.73;;
37067;SDS011;22982;42.848;25.468;2023-03-31T23:32:45;20.67;;;10.77;;
37067;SDS011;22982;42.848;25.468;2023-03-31T23:37:48;18.50;;;10.57;;
37067;SDS011;22982;42.848;25.468;2023-03-31T23:42:50;18.65;;;10.93;;
37067;SDS011;22982;42.848;25.468;2023-03-31T23:47:56;16.33;;;10.23;;
37067;SDS011;22982;42.848;25.468;2023-03-31T23:53:00;16.80;;;10.80;;
37067;SDS011;22982;42.848;25.468;2023-03-31T23:58:03;16.27;;;9.20;;
